sensor_id;sensor_type;location;lat;lon;timestamp;P1;durP1;ratioP1;P2;durP2;ratioP2
70320;SDS011;61127;55.826;37.046;2023-07-30T00:01:33;16.27;;;9.40;;
70320;SDS011;61127;55.826;37.046;2023-07-30T00:03:59;15.53;;;9.00;;
70320;SDS011;61127;55.826;37.046;2023-07-30T00:06:25;15.57;;;9.60;;
70320;SDS011;61127;55.826;37.046;2023-07-30T00:08:51;19.88;;;12.38;;
70320;SDS011;61127;55.826;37.046;2023-07-30T00:11:17;20.33;;;12.98;;
70320;SDS011;61127;55.826;37.046;2023-07-30T00:13:43;21.85;;;13.55;;
70320;SDS011;61127;55.826;37.046;2023-07-30T00:16:09;20.33;;;12.95;;
70320;SDS011;61127;55.826;37.046;2023-07-30T00:18:36;23.40;;;14.10;;
70320;SDS011;61127;55.826;37.046;2023-07-30T00:21:02;25.10;;;15.05;;
70320;SDS011;61127;55.826;37.046;2023-07-30T00:23:28;29.50;;;19.35;;
70320;SDS011;61127;55.826;37.046;2023-07-30T00:25:53;30.23;;;19.27;;
70320;SDS011;61127;55.826;37.046;2023-07-30T00:28:19;31.67;;;22.60;;
70320;SDS011;61127;55.826;37.046;2023-07-30T00:30:46;31.85;;;21.60;;
70320;SDS011;61127;55.826;37.046;2023-07-30T00:33:12;31.25;;;18.58;;
70320;SDS011;61127;55.826;37.046;2023-07-30T00:35:39;28.05;;;18.83;;
70320;SDS011;61127;55.826;37.046;2023-07-30T00:38:04;22.70;;;15.93;;
70320;SDS011;61127;55.826;37.046;2023-07-30T00:40:31;19.63;;;13.48;;
70320;SDS011;61127;55.826;37.046;2023-07-30T00:42:56;20.53;;;12.13;;
70320;SDS011;61127;55.826;37.046;2023-07-30T00:45:22;17.80;;;12.38;;
70320;SDS011;61127;55.826;37.046;2023-07-30T00:47:48;23.40;;;11.70;;
70320;SDS011;61127;55.826;37.046;2023-07-30T00:50:17;16.15;;;11.07;;
70320;SDS011;61127;55.826;37.046;2023-07-30T00:52:43;17.20;;;10.97;;
70320;SDS011;61127;55.826;37.046;2023-07-30T00:55:12;16.92;;;10.30;;
70320;SDS011;61127;55.826;37.046;2023-07-30T00:57:40;17.17;;;10.85;;
70320;SDS011;61127;55.826;37.046;2023-07-30T01:00:07;16.50;;;10.15;;
70320;SDS011;61127;55.826;37.046;2023-07-30T01:02:55;17.08;;;9.70;;
70320;SDS011;61127;55.826;37.046;2023-07-30T01:05:24;18.60;;;9.70;;
70320;SDS011;61127;55.826;37.046;2023-07-30T01:07:50;15.48;;;9.05;;
70320;SDS011;61127;55.826;37.046;2023-07-30T01:10:16;16.58;;;9.43;;
70320;SDS011;61127;55.826;37.046;2023-07-30T01:12:48;16.90;;;8.50;;
70320;SDS011;61127;55.826;37.046;2023-07-30T01:15:14;14.40;;;8.80;;
70320;SDS011;61127;55.826;37.046;2023-07-30T01:17:45;18.57;;;8.83;;
70320;SDS011;61127;55.826;37.046;2023-07-30T01:20:14;15.70;;;8.90;;
70320;SDS011;61127;55.826;37.046;2023-07-30T01:22:43;13.70;;;8.30;;
70320;SDS011;61127;55.826;37.046;2023-07-30T01:25:09;13.80;;;8.68;;
70320;SDS011;61127;55.826;37.046;2023-07-30T01:27:37;15.55;;;7.38;;
70320;SDS011;61127;55.826;37.046;2023-07-30T01:30:51;12.57;;;7.63;;
70320;SDS011;61127;55.826;37.046;2023-07-30T01:33:07;13.52;;;7.38;;
70320;SDS011;61127;55.826;37.046;2023-07-30T01:35:37;12.90;;;7.60;;
70320;SDS011;61127;55.826;37.046;2023-07-30T01:38:09;14.20;;;7.35;;
70320;SDS011;61127;55.826;37.046;2023-07-30T01:40:36;11.40;;;7.18;;
70320;SDS011;61127;55.826;37.046;2023-07-30T01:43:02;11.30;;;6.68;;
70320;SDS011;61127;55.826;37.046;2023-07-30T01:45:28;11.40;;;7.30;;
70320;SDS011;61127;55.826;37.046;2023-07-30T01:47:54;12.30;;;6.80;;
70320;SDS011;61127;55.826;37.046;2023-07-30T01:50:24;15.35;;;7.07;;
70320;SDS011;61127;55.826;37.046;2023-07-30T01:52:50;11.40;;;6.33;;
70320;SDS011;61127;55.826;37.046;2023-07-30T01:55:16;10.30;;;6.43;;
70320;SDS011;61127;55.826;37.046;2023-07-30T01:57:42;9.20;;;5.75;;
70320;SDS011;61127;55.826;37.046;2023-07-30T02:00:08;12.18;;;6.60;;
70320;SDS011;61127;55.826;37.046;2023-07-30T02:02:35;12.33;;;6.00;;
70320;SDS011;61127;55.826;37.046;2023-07-30T02:05:01;13.07;;;6.68;;
70320;SDS011;61127;55.826;37.046;2023-07-30T02:07:28;9.05;;;5.72;;
70320;SDS011;61127;55.826;37.046;2023-07-30T02:09:54;11.00;;;6.00;;
70320;SDS011;61127;55.826;37.046;2023-07-30T02:12:21;10.23;;;5.95;;
70320;SDS011;61127;55.826;37.046;2023-07-30T02:14:47;9.10;;;5.67;;
70320;SDS011;61127;55.826;37.046;2023-07-30T02:17:13;11.40;;;6.00;;
70320;SDS011;61127;55.826;37.046;2023-07-30T02:19:41;8.18;;;5.75;;
70320;SDS011;61127;55.826;37.046;2023-07-30T02:22:07;11.13;;;5.47;;
70320;SDS011;61127;55.826;37.046;2023-07-30T02:24:33;11.38;;;5.28;;
70320;SDS011;61127;55.826;37.046;2023-07-30T02:27:00;9.70;;;5.60;;
70320;SDS011;61127;55.826;37.046;2023-07-30T02:29:28;9.15;;;5.30;;
70320;SDS011;61127;55.826;37.046;2023-07-30T02:32:09;8.57;;;5.18;;
70320;SDS011;61127;55.826;37.046;2023-07-30T02:34:35;9.50;;;5.53;;
70320;SDS011;61127;55.826;37.046;2023-07-30T02:37:09;9.27;;;5.70;;
70320;SDS011;61127;55.826;37.046;2023-07-30T02:39:36;8.75;;;5.07;;
70320;SDS011;61127;55.826;37.046;2023-07-30T02:42:07;9.93;;;5.28;;
70320;SDS011;61127;55.826;37.046;2023-07-30T02:44:33;9.32;;;5.50;;
70320;SDS011;61127;55.826;37.046;2023-07-30T02:46:59;13.25;;;5.20;;
70320;SDS011;61127;55.826;37.046;2023-07-30T02:49:31;8.85;;;5.65;;
70320;SDS011;61127;55.826;37.046;2023-07-30T02:51:59;8.52;;;5.13;;
70320;SDS011;61127;55.826;37.046;2023-07-30T02:54:34;9.23;;;5.28;;
70320;SDS011;61127;55.826;37.046;2023-07-30T02:57:01;8.80;;;4.85;;
70320;SDS011;61127;55.826;37.046;2023-07-30T02:59:27;9.55;;;5.53;;
70320;SDS011;61127;55.826;37.046;2023-07-30T03:01:59;6.55;;;4.65;;
70320;SDS011;61127;55.826;37.046;2023-07-30T03:04:25;8.27;;;4.93;;
70320;SDS011;61127;55.826;37.046;2023-07-30T03:06:54;9.05;;;5.10;;
70320;SDS011;61127;55.826;37.046;2023-07-30T03:09:20;5.93;;;4.40;;
70320;SDS011;61127;55.826;37.046;2023-07-30T03:11:47;9.70;;;5.15;;
70320;SDS011;61127;55.826;37.046;2023-07-30T03:14:13;7.75;;;4.65;;
70320;SDS011;61127;55.826;37.046;2023-07-30T03:16:39;11.85;;;4.57;;
70320;SDS011;61127;55.826;37.046;2023-07-30T03:19:05;9.03;;;4.63;;
70320;SDS011;61127;55.826;37.046;2023-07-30T03:21:30;8.93;;;4.35;;
70320;SDS011;61127;55.826;37.046;2023-07-30T03:23:56;8.13;;;4.32;;
70320;SDS011;61127;55.826;37.046;2023-07-30T03:26:22;8.05;;;4.38;;
70320;SDS011;61127;55.826;37.046;2023-07-30T03:28:48;10.27;;;4.57;;
70320;SDS011;61127;55.826;37.046;2023-07-30T03:31:14;7.65;;;4.32;;
70320;SDS011;61127;55.826;37.046;2023-07-30T03:33:41;7.32;;;4.43;;
70320;SDS011;61127;55.826;37.046;2023-07-30T03:36:11;7.85;;;4.80;;
70320;SDS011;61127;55.826;37.046;2023-07-30T03:38:41;9.88;;;5.05;;
70320;SDS011;61127;55.826;37.046;2023-07-30T03:41:08;9.73;;;4.53;;
70320;SDS011;61127;55.826;37.046;2023-07-30T03:43:36;12.77;;;4.50;;
70320;SDS011;61127;55.826;37.046;2023-07-30T03:46:02;8.60;;;4.90;;
70320;SDS011;61127;55.826;37.046;2023-07-30T03:48:28;8.90;;;4.55;;
70320;SDS011;61127;55.826;37.046;2023-07-30T03:50:54;7.97;;;4.47;;
70320;SDS011;61127;55.826;37.046;2023-07-30T03:53:22;7.27;;;4.30;;
70320;SDS011;61127;55.826;37.046;2023-07-30T03:55:48;8.95;;;4.50;;
70320;SDS011;61127;55.826;37.046;2023-07-30T03:58:14;8.00;;;4.40;;
70320;SDS011;61127;55.826;37.046;2023-07-30T04:00:40;7.72;;;4.25;;
70320;SDS011;61127;55.826;37.046;2023-07-30T04:03:06;6.88;;;4.55;;
70320;SDS011;61127;55.826;37.046;2023-07-30T04:05:34;8.60;;;3.97;;
70320;SDS011;61127;55.826;37.046;2023-07-30T04:07:59;7.93;;;4.20;;
70320;SDS011;61127;55.826;37.046;2023-07-30T04:10:25;5.43;;;3.70;;
70320;SDS011;61127;55.826;37.046;2023-07-30T04:12:51;6.43;;;4.30;;
70320;SDS011;61127;55.826;37.046;2023-07-30T04:15:17;5.45;;;3.70;;
70320;SDS011;61127;55.826;37.046;2023-07-30T04:17:47;11.52;;;4.30;;
70320;SDS011;61127;55.826;37.046;2023-07-30T04:20:20;6.50;;;3.67;;
70320;SDS011;61127;55.826;37.046;2023-07-30T04:22:49;6.43;;;3.30;;
70320;SDS011;61127;55.826;37.046;2023-07-30T04:25:15;7.50;;;3.30;;
70320;SDS011;61127;55.826;37.046;2023-07-30T04:27:42;6.88;;;3.20;;
70320;SDS011;61127;55.826;37.046;2023-07-30T04:30:08;7.50;;;3.25;;
70320;SDS011;61127;55.826;37.046;2023-07-30T04:35:27;5.13;;;3.00;;
70320;SDS011;61127;55.826;37.046;2023-07-30T04:37:54;6.82;;;3.05;;
70320;SDS011;61127;55.826;37.046;2023-07-30T04:40:21;3.85;;;2.80;;
70320;SDS011;61127;55.826;37.046;2023-07-30T04:42:47;6.50;;;2.87;;
70320;SDS011;61127;55.826;37.046;2023-07-30T04:45:14;9.77;;;3.05;;
70320;SDS011;61127;55.826;37.046;2023-07-30T04:47:43;4.70;;;2.80;;
70320;SDS011;61127;55.826;37.046;2023-07-30T04:50:09;7.68;;;2.50;;
70320;SDS011;61127;55.826;37.046;2023-07-30T04:52:40;4.93;;;2.60;;
70320;SDS011;61127;55.826;37.046;2023-07-30T04:55:06;6.83;;;2.80;;
70320;SDS011;61127;55.826;37.046;2023-07-30T04:57:32;4.82;;;2.42;;
70320;SDS011;61127;55.826;37.046;2023-07-30T04:59:58;4.65;;;2.25;;
70320;SDS011;61127;55.826;37.046;2023-07-30T05:02:24;5.85;;;3.08;;
70320;SDS011;61127;55.826;37.046;2023-07-30T05:04:50;3.83;;;2.60;;
70320;SDS011;61127;55.826;37.046;2023-07-30T05:07:16;4.05;;;2.47;;
70320;SDS011;61127;55.826;37.046;2023-07-30T05:09:42;5.55;;;2.70;;
70320;SDS011;61127;55.826;37.046;2023-07-30T05:12:10;3.45;;;2.30;;
70320;SDS011;61127;55.826;37.046;2023-07-30T05:14:36;3.67;;;2.57;;
70320;SDS011;61127;55.826;37.046;2023-07-30T05:17:02;4.28;;;2.58;;
70320;SDS011;61127;55.826;37.046;2023-07-30T05:19:28;4.20;;;2.30;;
70320;SDS011;61127;55.826;37.046;2023-07-30T05:21:54;3.90;;;2.37;;
70320;SDS011;61127;55.826;37.046;2023-07-30T05:24:20;3.78;;;2.33;;
70320;SDS011;61127;55.826;37.046;2023-07-30T05:26:47;4.43;;;2.53;;
70320;SDS011;61127;55.826;37.046;2023-07-30T05:29:13;2.88;;;2.30;;
70320;SDS011;61127;55.826;37.046;2023-07-30T05:31:39;4.22;;;2.30;;
70320;SDS011;61127;55.826;37.046;2023-07-30T05:34:48;5.93;;;2.30;;
70320;SDS011;61127;55.826;37.046;2023-07-30T05:37:14;4.27;;;2.40;;
70320;SDS011;61127;55.826;37.046;2023-07-30T05:39:41;3.58;;;2.28;;
70320;SDS011;61127;55.826;37.046;2023-07-30T05:42:07;4.88;;;2.00;;
70320;SDS011;61127;55.826;37.046;2023-07-30T05:44:33;3.05;;;2.10;;
70320;SDS011;61127;55.826;37.046;2023-07-30T05:46:58;5.00;;;2.30;;
70320;SDS011;61127;55.826;37.046;2023-07-30T05:49:24;3.70;;;1.90;;
70320;SDS011;61127;55.826;37.046;2023-07-30T05:51:51;4.32;;;2.13;;
70320;SDS011;61127;55.826;37.046;2023-07-30T05:54:17;4.07;;;2.10;;
70320;SDS011;61127;55.826;37.046;2023-07-30T05:56:43;5.30;;;2.40;;
70320;SDS011;61127;55.826;37.046;2023-07-30T05:59:09;3.65;;;2.25;;
70320;SDS011;61127;55.826;37.046;2023-07-30T06:01:35;4.68;;;2.10;;
70320;SDS011;61127;55.826;37.046;2023-07-30T06:04:01;4.93;;;2.20;;
70320;SDS011;61127;55.826;37.046;2023-07-30T06:06:28;5.43;;;2.30;;
70320;SDS011;61127;55.826;37.046;2023-07-30T06:08:54;3.42;;;2.20;;
70320;SDS011;61127;55.826;37.046;2023-07-30T06:11:21;5.95;;;2.45;;
70320;SDS011;61127;55.826;37.046;2023-07-30T06:13:47;6.00;;;1.98;;
70320;SDS011;61127;55.826;37.046;2023-07-30T06:16:13;2.83;;;2.00;;
70320;SDS011;61127;55.826;37.046;2023-07-30T06:18:39;3.25;;;1.95;;
70320;SDS011;61127;55.826;37.046;2023-07-30T06:21:05;5.30;;;2.20;;
70320;SDS011;61127;55.826;37.046;2023-07-30T06:23:35;4.00;;;1.98;;
70320;SDS011;61127;55.826;37.046;2023-07-30T06:26:06;4.73;;;1.90;;
70320;SDS011;61127;55.826;37.046;2023-07-30T06:28:32;3.90;;;2.10;;
70320;SDS011;61127;55.826;37.046;2023-07-30T06:31:02;5.47;;;2.05;;
70320;SDS011;61127;55.826;37.046;2023-07-30T06:33:28;4.32;;;1.92;;
70320;SDS011;61127;55.826;37.046;2023-07-30T06:35:54;5.60;;;1.87;;
70320;SDS011;61127;55.826;37.046;2023-07-30T06:38:20;2.33;;;1.77;;
70320;SDS011;61127;55.826;37.046;2023-07-30T06:40:46;6.28;;;2.00;;
70320;SDS011;61127;55.826;37.046;2023-07-30T06:43:15;3.92;;;2.00;;
70320;SDS011;61127;55.826;37.046;2023-07-30T06:45:41;3.90;;;1.90;;
70320;SDS011;61127;55.826;37.046;2023-07-30T06:48:07;3.58;;;2.08;;
70320;SDS011;61127;55.826;37.046;2023-07-30T06:50:33;2.35;;;1.80;;
70320;SDS011;61127;55.826;37.046;2023-07-30T06:52:59;3.37;;;1.90;;
70320;SDS011;61127;55.826;37.046;2023-07-30T06:55:24;5.43;;;2.10;;
70320;SDS011;61127;55.826;37.046;2023-07-30T06:57:51;2.95;;;2.03;;
70320;SDS011;61127;55.826;37.046;2023-07-30T07:00:16;5.73;;;2.07;;
70320;SDS011;61127;55.826;37.046;2023-07-30T07:02:47;3.88;;;1.90;;
70320;SDS011;61127;55.826;37.046;2023-07-30T07:05:14;2.97;;;1.92;;
70320;SDS011;61127;55.826;37.046;2023-07-30T07:07:40;3.30;;;1.95;;
70320;SDS011;61127;55.826;37.046;2023-07-30T07:10:06;2.70;;;1.70;;
70320;SDS011;61127;55.826;37.046;2023-07-30T07:12:32;3.03;;;1.50;;
70320;SDS011;61127;55.826;37.046;2023-07-30T07:14:58;4.47;;;2.08;;
70320;SDS011;61127;55.826;37.046;2023-07-30T07:17:29;4.73;;;1.83;;
70320;SDS011;61127;55.826;37.046;2023-07-30T07:19:56;3.97;;;1.60;;
70320;SDS011;61127;55.826;37.046;2023-07-30T07:22:31;3.92;;;1.90;;
70320;SDS011;61127;55.826;37.046;2023-07-30T07:24:57;3.05;;;1.80;;
70320;SDS011;61127;55.826;37.046;2023-07-30T07:27:23;3.10;;;1.93;;
70320;SDS011;61127;55.826;37.046;2023-07-30T07:29:50;5.68;;;1.73;;
70320;SDS011;61127;55.826;37.046;2023-07-30T07:32:17;2.83;;;1.77;;
70320;SDS011;61127;55.826;37.046;2023-07-30T07:34:46;3.17;;;1.90;;
70320;SDS011;61127;55.826;37.046;2023-07-30T07:37:14;6.25;;;1.95;;
70320;SDS011;61127;55.826;37.046;2023-07-30T07:39:41;3.70;;;1.70;;
70320;SDS011;61127;55.826;37.046;2023-07-30T07:42:11;4.63;;;1.80;;
70320;SDS011;61127;55.826;37.046;2023-07-30T07:44:40;3.85;;;1.70;;
70320;SDS011;61127;55.826;37.046;2023-07-30T07:47:08;5.10;;;1.80;;
70320;SDS011;61127;55.826;37.046;2023-07-30T07:49:46;3.00;;;1.60;;
70320;SDS011;61127;55.826;37.046;2023-07-30T07:52:13;1.77;;;1.40;;
70320;SDS011;61127;55.826;37.046;2023-07-30T07:54:40;2.85;;;1.70;;
70320;SDS011;61127;55.826;37.046;2023-07-30T07:57:07;3.60;;;1.67;;
70320;SDS011;61127;55.826;37.046;2023-07-30T07:59:34;4.45;;;1.73;;
70320;SDS011;61127;55.826;37.046;2023-07-30T08:01:59;4.23;;;1.70;;
70320;SDS011;61127;55.826;37.046;2023-07-30T08:04:25;3.13;;;1.55;;
70320;SDS011;61127;55.826;37.046;2023-07-30T08:06:51;3.20;;;1.70;;
70320;SDS011;61127;55.826;37.046;2023-07-30T08:09:17;3.27;;;1.67;;
70320;SDS011;61127;55.826;37.046;2023-07-30T08:11:43;4.72;;;1.77;;
70320;SDS011;61127;55.826;37.046;2023-07-30T08:14:09;3.53;;;1.65;;
70320;SDS011;61127;55.826;37.046;2023-07-30T08:16:35;2.97;;;1.70;;
70320;SDS011;61127;55.826;37.046;2023-07-30T08:19:00;2.72;;;1.60;;
70320;SDS011;61127;55.826;37.046;2023-07-30T08:21:29;3.03;;;1.80;;
70320;SDS011;61127;55.826;37.046;2023-07-30T08:24:15;5.17;;;1.90;;
70320;SDS011;61127;55.826;37.046;2023-07-30T08:27:08;5.60;;;1.70;;
70320;SDS011;61127;55.826;37.046;2023-07-30T08:29:34;5.05;;;2.03;;
70320;SDS011;61127;55.826;37.046;2023-07-30T08:32:00;4.65;;;2.10;;
70320;SDS011;61127;55.826;37.046;2023-07-30T08:34:26;2.00;;;1.70;;
70320;SDS011;61127;55.826;37.046;2023-07-30T08:36:52;3.17;;;2.05;;
70320;SDS011;61127;55.826;37.046;2023-07-30T08:39:18;4.15;;;1.70;;
70320;SDS011;61127;55.826;37.046;2023-07-30T08:41:45;2.38;;;1.85;;
70320;SDS011;61127;55.826;37.046;2023-07-30T08:44:11;3.03;;;1.73;;
70320;SDS011;61127;55.826;37.046;2023-07-30T08:46:38;2.63;;;1.57;;
70320;SDS011;61127;55.826;37.046;2023-07-30T08:49:04;3.10;;;1.90;;
70320;SDS011;61127;55.826;37.046;2023-07-30T08:51:31;6.00;;;2.10;;
70320;SDS011;61127;55.826;37.046;2023-07-30T08:53:58;4.05;;;2.10;;
70320;SDS011;61127;55.826;37.046;2023-07-30T08:56:26;3.90;;;1.98;;
70320;SDS011;61127;55.826;37.046;2023-07-30T08:58:52;3.00;;;1.87;;
70320;SDS011;61127;55.826;37.046;2023-07-30T09:01:22;2.63;;;2.03;;
70320;SDS011;61127;55.826;37.046;2023-07-30T09:03:55;5.03;;;2.10;;
70320;SDS011;61127;55.826;37.046;2023-07-30T09:06:25;3.45;;;1.77;;
70320;SDS011;61127;55.826;37.046;2023-07-30T09:08:57;5.10;;;1.70;;
70320;SDS011;61127;55.826;37.046;2023-07-30T09:11:28;3.35;;;1.83;;
70320;SDS011;61127;55.826;37.046;2023-07-30T09:13:56;2.38;;;1.85;;
70320;SDS011;61127;55.826;37.046;2023-07-30T09:16:48;4.05;;;1.90;;
70320;SDS011;61127;55.826;37.046;2023-07-30T09:19:31;4.22;;;2.25;;
70320;SDS011;61127;55.826;37.046;2023-07-30T09:22:03;4.13;;;1.83;;
70320;SDS011;61127;55.826;37.046;2023-07-30T09:24:30;2.42;;;1.70;;
70320;SDS011;61127;55.826;37.046;2023-07-30T09:26:57;3.00;;;1.80;;
70320;SDS011;61127;55.826;37.046;2023-07-30T09:29:27;2.38;;;2.15;;
70320;SDS011;61127;55.826;37.046;2023-07-30T09:31:54;3.00;;;2.05;;
70320;SDS011;61127;55.826;37.046;2023-07-30T09:34:22;3.20;;;1.90;;
70320;SDS011;61127;55.826;37.046;2023-07-30T09:36:53;4.22;;;1.60;;
70320;SDS011;61127;55.826;37.046;2023-07-30T09:41:59;3.75;;;2.15;;
70320;SDS011;61127;55.826;37.046;2023-07-30T09:44:26;3.63;;;2.10;;
70320;SDS011;61127;55.826;37.046;2023-07-30T09:46:53;2.80;;;2.10;;
70320;SDS011;61127;55.826;37.046;2023-07-30T09:49:19;5.47;;;2.10;;
70320;SDS011;61127;55.826;37.046;2023-07-30T09:51:45;8.65;;;5.10;;
70320;SDS011;61127;55.826;37.046;2023-07-30T09:54:13;3.53;;;2.17;;
70320;SDS011;61127;55.826;37.046;2023-07-30T09:56:40;2.35;;;1.60;;
70320;SDS011;61127;55.826;37.046;2023-07-30T09:59:08;4.10;;;1.73;;
70320;SDS011;61127;55.826;37.046;2023-07-30T10:01:36;3.10;;;1.80;;
70320;SDS011;61127;55.826;37.046;2023-07-30T10:04:10;2.95;;;1.80;;
70320;SDS011;61127;55.826;37.046;2023-07-30T10:06:48;3.47;;;1.95;;
70320;SDS011;61127;55.826;37.046;2023-07-30T10:09:22;2.70;;;2.00;;
70320;SDS011;61127;55.826;37.046;2023-07-30T10:11:51;4.00;;;2.70;;
70320;SDS011;61127;55.826;37.046;2023-07-30T10:14:23;5.82;;;1.92;;
70320;SDS011;61127;55.826;37.046;2023-07-30T10:16:52;2.58;;;1.63;;
70320;SDS011;61127;55.826;37.046;2023-07-30T10:19:23;3.55;;;1.80;;
70320;SDS011;61127;55.826;37.046;2023-07-30T10:21:51;3.22;;;1.70;;
70320;SDS011;61127;55.826;37.046;2023-07-30T10:24:19;3.23;;;1.60;;
70320;SDS011;61127;55.826;37.046;2023-07-30T10:26:45;2.35;;;2.00;;
70320;SDS011;61127;55.826;37.046;2023-07-30T10:31:52;5.38;;;2.40;;
70320;SDS011;61127;55.826;37.046;2023-07-30T10:34:20;4.97;;;2.40;;
70320;SDS011;61127;55.826;37.046;2023-07-30T10:36:49;3.42;;;2.22;;
70320;SDS011;61127;55.826;37.046;2023-07-30T10:41:50;2.83;;;2.30;;
70320;SDS011;61127;55.826;37.046;2023-07-30T10:44:22;5.43;;;2.23;;
70320;SDS011;61127;55.826;37.046;2023-07-30T10:46:54;4.45;;;2.25;;
70320;SDS011;61127;55.826;37.046;2023-07-30T10:49:21;3.17;;;1.88;;
70320;SDS011;61127;55.826;37.046;2023-07-30T10:51:48;2.75;;;2.42;;
70320;SDS011;61127;55.826;37.046;2023-07-30T10:54:14;2.70;;;2.20;;
70320;SDS011;61127;55.826;37.046;2023-07-30T10:56:41;2.83;;;2.10;;
70320;SDS011;61127;55.826;37.046;2023-07-30T10:59:08;3.45;;;2.78;;
70320;SDS011;61127;55.826;37.046;2023-07-30T11:01:38;3.17;;;2.83;;
70320;SDS011;61127;55.826;37.046;2023-07-30T11:04:10;2.90;;;2.70;;
70320;SDS011;61127;55.826;37.046;2023-07-30T11:06:44;4.18;;;2.50;;
70320;SDS011;61127;55.826;37.046;2023-07-30T11:09:19;2.87;;;1.90;;
70320;SDS011;61127;55.826;37.046;2023-07-30T11:11:49;3.38;;;2.22;;
70320;SDS011;61127;55.826;37.046;2023-07-30T11:14:20;2.30;;;2.10;;
70320;SDS011;61127;55.826;37.046;2023-07-30T11:16:51;2.40;;;2.20;;
70320;SDS011;61127;55.826;37.046;2023-07-30T11:19:26;3.33;;;2.45;;
70320;SDS011;61127;55.826;37.046;2023-07-30T11:21:54;2.77;;;2.53;;
70320;SDS011;61127;55.826;37.046;2023-07-30T11:24:21;5.10;;;3.20;;
70320;SDS011;61127;55.826;37.046;2023-07-30T11:26:59;3.20;;;3.00;;
70320;SDS011;61127;55.826;37.046;2023-07-30T11:29:26;3.25;;;2.95;;
70320;SDS011;61127;55.826;37.046;2023-07-30T11:31:55;4.43;;;4.03;;
70320;SDS011;61127;55.826;37.046;2023-07-30T11:34:23;3.40;;;3.10;;
70320;SDS011;61127;55.826;37.046;2023-07-30T11:36:50;4.60;;;2.60;;
70320;SDS011;61127;55.826;37.046;2023-07-30T11:39:16;3.15;;;2.60;;
70320;SDS011;61127;55.826;37.046;2023-07-30T11:41:42;2.53;;;2.08;;
70320;SDS011;61127;55.826;37.046;2023-07-30T11:44:08;2.70;;;1.75;;
70320;SDS011;61127;55.826;37.046;2023-07-30T11:46:54;2.80;;;2.45;;
70320;SDS011;61127;55.826;37.046;2023-07-30T11:49:20;4.93;;;3.25;;
70320;SDS011;61127;55.826;37.046;2023-07-30T11:51:47;13.57;;;8.38;;
70320;SDS011;61127;55.826;37.046;2023-07-30T11:54:20;14.23;;;10.38;;
70320;SDS011;61127;55.826;37.046;2023-07-30T11:56:54;5.80;;;3.87;;
70320;SDS011;61127;55.826;37.046;2023-07-30T11:59:21;5.32;;;3.15;;
70320;SDS011;61127;55.826;37.046;2023-07-30T12:01:47;4.07;;;2.70;;
70320;SDS011;61127;55.826;37.046;2023-07-30T12:04:13;5.03;;;2.60;;
70320;SDS011;61127;55.826;37.046;2023-07-30T12:06:43;4.60;;;2.67;;
70320;SDS011;61127;55.826;37.046;2023-07-30T12:09:12;3.50;;;2.90;;
70320;SDS011;61127;55.826;37.046;2023-07-30T12:14:27;5.28;;;3.45;;
70320;SDS011;61127;55.826;37.046;2023-07-30T12:16:58;4.00;;;3.47;;
70320;SDS011;61127;55.826;37.046;2023-07-30T12:19:24;4.22;;;3.80;;
70320;SDS011;61127;55.826;37.046;2023-07-30T12:21:50;3.20;;;2.90;;
70320;SDS011;61127;55.826;37.046;2023-07-30T12:24:16;3.67;;;2.13;;
70320;SDS011;61127;55.826;37.046;2023-07-30T12:26:42;3.55;;;2.30;;
70320;SDS011;61127;55.826;37.046;2023-07-30T12:29:08;2.45;;;2.03;;
70320;SDS011;61127;55.826;37.046;2023-07-30T12:31:34;3.03;;;2.20;;
70320;SDS011;61127;55.826;37.046;2023-07-30T12:34:00;3.45;;;1.98;;
70320;SDS011;61127;55.826;37.046;2023-07-30T12:36:26;3.28;;;1.90;;
70320;SDS011;61127;55.826;37.046;2023-07-30T12:38:52;4.20;;;2.50;;
70320;SDS011;61127;55.826;37.046;2023-07-30T12:41:19;4.50;;;2.78;;
70320;SDS011;61127;55.826;37.046;2023-07-30T12:43:54;3.08;;;2.80;;
70320;SDS011;61127;55.826;37.046;2023-07-30T12:46:24;3.53;;;3.00;;
70320;SDS011;61127;55.826;37.046;2023-07-30T12:48:55;3.13;;;2.83;;
70320;SDS011;61127;55.826;37.046;2023-07-30T12:51:22;3.30;;;3.00;;
70320;SDS011;61127;55.826;37.046;2023-07-30T12:53:48;4.32;;;3.22;;
70320;SDS011;61127;55.826;37.046;2023-07-30T12:56:15;4.82;;;3.00;;
70320;SDS011;61127;55.826;37.046;2023-07-30T12:58:41;4.10;;;3.20;;
70320;SDS011;61127;55.826;37.046;2023-07-30T13:01:07;5.40;;;4.90;;
70320;SDS011;61127;55.826;37.046;2023-07-30T13:03:33;3.95;;;3.55;;
70320;SDS011;61127;55.826;37.046;2023-07-30T13:06:02;4.32;;;2.60;;
70320;SDS011;61127;55.826;37.046;2023-07-30T13:08:28;3.13;;;1.90;;
70320;SDS011;61127;55.826;37.046;2023-07-30T13:10:54;3.95;;;2.47;;
70320;SDS011;61127;55.826;37.046;2023-07-30T13:13:20;4.32;;;2.50;;
70320;SDS011;61127;55.826;37.046;2023-07-30T13:15:46;3.38;;;3.08;;
70320;SDS011;61127;55.826;37.046;2023-07-30T13:18:12;4.35;;;2.80;;
70320;SDS011;61127;55.826;37.046;2023-07-30T13:20:38;5.72;;;2.83;;
70320;SDS011;61127;55.826;37.046;2023-07-30T13:23:04;5.15;;;2.78;;
70320;SDS011;61127;55.826;37.046;2023-07-30T13:25:30;3.40;;;2.60;;
70320;SDS011;61127;55.826;37.046;2023-07-30T13:27:56;2.55;;;2.13;;
70320;SDS011;61127;55.826;37.046;2023-07-30T13:30:22;5.50;;;4.55;;
70320;SDS011;61127;55.826;37.046;2023-07-30T13:32:48;7.77;;;5.77;;
70320;SDS011;61127;55.826;37.046;2023-07-30T13:35:14;8.23;;;6.32;;
70320;SDS011;61127;55.826;37.046;2023-07-30T13:37:40;9.23;;;7.07;;
70320;SDS011;61127;55.826;37.046;2023-07-30T13:40:06;2.73;;;2.37;;
70320;SDS011;61127;55.826;37.046;2023-07-30T13:42:36;6.40;;;2.85;;
70320;SDS011;61127;55.826;37.046;2023-07-30T13:45:05;4.15;;;2.83;;
70320;SDS011;61127;55.826;37.046;2023-07-30T13:47:33;5.13;;;2.80;;
70320;SDS011;61127;55.826;37.046;2023-07-30T13:50:00;2.40;;;2.20;;
70320;SDS011;61127;55.826;37.046;2023-07-30T13:52:26;2.77;;;1.77;;
70320;SDS011;61127;55.826;37.046;2023-07-30T13:54:52;3.35;;;1.75;;
70320;SDS011;61127;55.826;37.046;2023-07-30T13:57:23;5.05;;;1.80;;
70320;SDS011;61127;55.826;37.046;2023-07-30T14:00:26;4.15;;;1.95;;
70320;SDS011;61127;55.826;37.046;2023-07-30T14:03:05;3.53;;;2.22;;
70320;SDS011;61127;55.826;37.046;2023-07-30T14:05:34;3.15;;;2.45;;
70320;SDS011;61127;55.826;37.046;2023-07-30T14:08:06;4.30;;;1.98;;
70320;SDS011;61127;55.826;37.046;2023-07-30T14:10:32;3.78;;;2.72;;
70320;SDS011;61127;55.826;37.046;2023-07-30T14:12:58;6.60;;;4.43;;
70320;SDS011;61127;55.826;37.046;2023-07-30T14:15:25;4.23;;;2.47;;
70320;SDS011;61127;55.826;37.046;2023-07-30T14:17:51;11.38;;;8.23;;
70320;SDS011;61127;55.826;37.046;2023-07-30T14:20:18;5.25;;;3.45;;
70320;SDS011;61127;55.826;37.046;2023-07-30T14:22:44;11.23;;;6.65;;
70320;SDS011;61127;55.826;37.046;2023-07-30T14:25:10;7.60;;;4.05;;
70320;SDS011;61127;55.826;37.046;2023-07-30T14:27:36;7.53;;;4.83;;
70320;SDS011;61127;55.826;37.046;2023-07-30T14:30:02;4.30;;;2.45;;
70320;SDS011;61127;55.826;37.046;2023-07-30T14:32:30;4.55;;;2.78;;
70320;SDS011;61127;55.826;37.046;2023-07-30T14:34:56;2.67;;;1.60;;
70320;SDS011;61127;55.826;37.046;2023-07-30T14:37:22;4.40;;;2.22;;
70320;SDS011;61127;55.826;37.046;2023-07-30T14:39:49;3.05;;;1.67;;
70320;SDS011;61127;55.826;37.046;2023-07-30T14:42:18;7.93;;;1.83;;
70320;SDS011;61127;55.826;37.046;2023-07-30T14:44:44;2.20;;;1.30;;
70320;SDS011;61127;55.826;37.046;2023-07-30T14:47:10;1.77;;;1.33;;
70320;SDS011;61127;55.826;37.046;2023-07-30T14:49:37;5.45;;;2.95;;